Time;durP1;ratioP1;P1;durP2;ratioP2;P2;SDS_P1;SDS_P2;PMS_P1;PMS_P2;Temp;Humidity;BMP_temperature;BMP_pressure;BME280_temperature;BME280_humidity;BME280_pressure;Samples;Min_cycle;Max_cycle;Signal;HPM_P1;HPM_P2
2021/08/17 00:02:16;;;;;;;6.90;6.13;;;16.20;99.90;;;;;;10548840;28;20289;-86
2021/08/17 00:07:19;;;;;;;8.00;7.20;;;16.20;99.90;;;;;;10568884;28;20221;-86
2021/08/17 00:19:02;;;;;;;8.47;7.07;;;16.20;99.90;;;;;;10588650;28;20856;-86
2021/08/17 00:24:05;;;;;;;7.70;6.90;;;16.20;99.90;;;;;;10589254;28;20179;-82
2021/08/17 00:29:07;;;;;;;8.43;7.53;;;16.30;99.90;;;;;;10553948;28;20210;-85
2021/08/17 00:34:10;;;;;;;9.30;7.93;;;16.30;99.90;;;;;;10552257;28;20195;-86
2021/08/17 00:39:13;;;;;;;12.97;8.20;;;16.30;99.90;;;;;;10557278;28;20697;-85
2021/08/17 00:44:19;;;;;;;9.17;6.93;;;;;;;;;;10581268;28;20215;-85
2021/08/17 00:49:23;;;;;;;9.33;6.80;;;16.30;99.90;;;;;;10546249;28;20221;-85
2021/08/17 00:54:27;;;;;;;7.90;7.20;;;16.30;99.90;;;;;;10565883;28;20194;-85
2021/08/17 00:59:37;;;;;;;7.90;7.10;;;16.20;99.90;;;;;;10561581;28;20274;-83
2021/08/17 01:04:40;;;;;;;7.10;6.40;;;16.20;99.90;;;;;;10558981;28;20519;-84
2021/08/17 01:09:45;;;;;;;9.13;7.57;;;16.20;99.90;;;;;;10579547;28;20233;-84
2021/08/17 01:14:48;;;;;;;7.90;6.70;;;16.30;99.90;;;;;;10547071;28;20230;-86
2021/08/17 01:19:54;;;;;;;7.67;6.80;;;16.30;99.90;;;;;;10547479;28;20215;-84
2021/08/17 01:24:56;;;;;;;7.17;6.50;;;16.20;99.90;;;;;;10584205;28;20191;-85
2021/08/17 01:30:00;;;;;;;7.60;6.30;;;16.20;99.90;;;;;;10564342;28;20191;-85
2021/08/17 01:35:02;;;;;;;8.00;6.83;;;16.00;99.90;;;;;;10548814;28;20215;-84
2021/08/17 01:40:08;;;;;;;6.73;5.50;;;15.90;99.90;;;;;;10601733;28;20741;-85
2021/08/17 01:45:14;;;;;;;7.20;6.13;;;15.90;99.90;;;;;;10560888;28;20597;-86
2021/08/17 01:50:17;;;;;;;6.60;5.80;;;15.80;99.90;;;;;;10548686;28;20219;-86
2021/08/17 01:55:22;;;;;;;8.63;6.60;;;15.80;99.90;;;;;;10549929;28;20211;-85
2021/08/17 02:00:26;;;;;;;7.73;6.77;;;15.70;99.90;;;;;;10550197;28;20578;-85
2021/08/17 02:05:28;;;;;;;6.70;6.10;;;15.70;99.90;;;;;;10571423;28;20215;-86
2021/08/17 02:10:30;;;;;;;7.50;6.80;;;15.70;99.90;;;;;;10570578;28;20183;-86
2021/08/17 02:15:34;;;;;;;8.80;6.90;;;15.70;99.90;;;;;;10571957;28;20238;-82
2021/08/17 02:20:36;;;;;;;14.13;7.20;;;15.70;99.90;;;;;;10585930;28;20670;-85
2021/08/17 02:25:38;;;;;;;7.17;5.50;;;15.70;99.90;;;;;;10566487;28;20233;-82
2021/08/17 02:30:41;;;;;;;7.80;6.93;;;15.70;99.90;;;;;;10555409;28;20201;-85
2021/08/17 02:35:44;;;;;;;7.40;6.70;;;15.60;99.90;;;;;;10551883;28;20246;-85
2021/08/17 02:40:46;;;;;;;6.87;6.17;;;15.60;99.90;;;;;;10586783;28;20215;-86
2021/08/17 02:45:55;;;;;;;7.97;5.80;;;15.50;99.90;;;;;;10557883;28;20247;-84
2021/08/17 02:50:57;;;;;;;7.03;6.33;;;15.50;99.90;;;;;;10559327;28;20195;-85
2021/08/17 02:56:00;;;;;;;11.50;5.63;;;15.40;99.90;;;;;;10600811;28;20271;-86
2021/08/17 03:01:08;;;;;;;9.03;6.90;;;15.30;99.90;;;;;;10585588;28;20242;-86
2021/08/17 03:06:13;;;;;;;7.00;6.30;;;15.20;99.90;;;;;;10556767;28;20213;-84
2021/08/17 03:11:15;;;;;;;7.13;6.43;;;15.10;99.90;;;;;;10585594;28;20236;-85
2021/08/17 03:16:21;;;;;;;7.90;6.80;;;15.00;99.90;;;;;;10556132;28;20253;-84
2021/08/17 03:21:24;;;;;;;6.83;6.20;;;15.00;99.90;;;;;;10554236;28;20222;-86
2021/08/17 03:26:26;;;;;;;5.67;5.07;;;15.00;99.90;;;;;;10552091;28;20219;-85
2021/08/17 03:31:30;;;;;;;7.53;6.13;;;15.00;99.90;;;;;;10586840;28;20252;-84
2021/08/17 03:36:32;;;;;;;6.53;5.87;;;15.00;99.90;;;;;;10570045;28;20222;-85
2021/08/17 03:41:37;;;;;;;7.03;6.33;;;15.00;99.90;;;;;;10556434;28;20203;-85
2021/08/17 03:46:41;;;;;;;6.33;5.73;;;14.90;99.90;;;;;;10555762;28;20227;-84
2021/08/17 03:51:43;;;;;;;8.50;6.00;;;14.80;99.90;;;;;;10553211;28;20241;-83
2021/08/17 03:56:45;;;;;;;8.00;6.07;;;14.70;99.90;;;;;;10551578;28;20218;-83
2021/08/17 04:01:49;;;;;;;6.03;4.90;;;14.70;99.90;;;;;;10574008;28;20267;-84
2021/08/17 04:06:51;;;;;;;7.87;6.00;;;14.60;99.90;;;;;;10587411;28;20215;-86
2021/08/17 04:11:53;;;;;;;6.33;5.00;;;14.60;99.90;;;;;;10571719;28;20241;-84
2021/08/17 04:16:57;;;;;;;6.80;6.10;;;14.50;99.90;;;;;;10572886;28;20548;-84
2021/08/17 04:21:59;;;;;;;7.13;5.90;;;14.50;99.90;;;;;;10571231;28;20219;-85
2021/08/17 04:27:01;;;;;;;7.70;5.93;;;14.50;99.90;;;;;;10555914;28;20674;-85
2021/08/17 04:32:06;;;;;;;8.40;6.93;;;14.50;99.90;;;;;;10573744;28;20201;-86
2021/08/17 04:37:09;;;;;;;9.00;6.83;;;14.50;99.90;;;;;;10559404;28;20215;-85
2021/08/17 04:42:11;;;;;;;6.57;5.70;;;14.60;99.90;;;;;;10596986;28;20620;-85
2021/08/17 04:47:15;;;;;;;7.07;6.27;;;14.70;99.90;;;;;;10585685;27;20219;-86
2021/08/17 04:52:19;;;;;;;8.07;6.30;;;14.70;99.90;;;;;;10576677;28;20205;-83
2021/08/17 04:57:21;;;;;;;8.20;6.80;;;14.70;99.90;;;;;;10565836;28;20729;-84
2021/08/17 05:02:27;;;;;;;6.73;6.03;;;14.70;99.90;;;;;;10553720;28;20195;-85
2021/08/17 05:07:29;;;;;;;7.07;6.17;;;14.70;99.90;;;;;;10553267;28;20583;-83
2021/08/17 05:12:31;;;;;;;7.17;6.30;;;14.80;99.90;;;;;;10590660;28;20226;-84
2021/08/17 05:17:35;;;;;;;8.90;6.90;;;14.80;99.90;;;;;;10590401;28;20237;-85
2021/08/17 05:22:37;;;;;;;8.97;6.03;;;14.90;99.90;;;;;;10560220;28;20294;-84
2021/08/17 05:27:39;;;;;;;8.83;6.37;;;15.00;99.90;;;;;;10572537;28;20203;-84
2021/08/17 05:32:43;;;;;;;12.67;7.00;;;15.00;99.90;;;;;;10570348;28;20206;-85
2021/08/17 05:37:53;;;;;;;9.80;6.70;;;15.10;99.90;;;;;;10569691;28;20220;-85
2021/08/17 05:42:55;;;;;;;7.30;5.60;;;15.10;99.90;;;;;;10570651;28;20191;-84
2021/08/17 05:47:59;;;;;;;7.90;6.67;;;15.10;99.90;;;;;;10553938;28;20588;-83
2021/08/17 05:53:01;;;;;;;7.20;6.50;;;15.10;99.90;;;;;;10586737;28;20278;-82
2021/08/17 05:58:03;;;;;;;7.27;6.47;;;15.10;99.90;;;;;;10570001;28;20218;-83
2021/08/17 06:03:07;;;;;;;7.83;5.93;;;15.10;99.90;;;;;;10586495;28;20263;-82
2021/08/17 06:08:09;;;;;;;7.37;6.50;;;15.20;99.90;;;;;;10563585;28;20222;-82
2021/08/17 06:13:11;;;;;;;8.07;7.03;;;15.30;99.90;;;;;;10574619;28;20187;-83
2021/08/17 06:18:14;;;;;;;7.77;6.97;;;15.40;99.90;;;;;;10558748;28;20305;-82
2021/08/17 06:23:17;;;;;;;6.60;6.00;;;15.40;99.90;;;;;;10576329;28;20682;-82
2021/08/17 06:28:19;;;;;;;6.23;5.63;;;15.40;99.90;;;;;;10560101;28;20221;-83
2021/08/17 06:33:22;;;;;;;8.37;6.80;;;15.40;99.90;;;;;;10560689;28;20209;-82
2021/08/17 06:38:24;;;;;;;7.57;6.87;;;15.50;99.90;;;;;;10578316;28;20298;-83
2021/08/17 06:43:29;;;;;;;7.20;6.50;;;15.60;99.90;;;;;;10564347;28;20197;-82
2021/08/17 06:48:32;;;;;;;9.43;6.87;;;15.70;99.90;;;;;;10551854;28;20248;-82
2021/08/17 06:53:34;;;;;;;8.90;6.63;;;15.80;99.90;;;;;;10552630;28;20627;-82
2021/08/17 06:58:37;;;;;;;9.20;7.63;;;15.90;99.90;;;;;;10553228;28;20285;-82
2021/08/17 07:03:40;;;;;;;9.50;6.83;;;15.90;99.90;;;;;;10570110;28;20188;-83
2021/08/17 07:08:42;;;;;;;7.70;6.93;;;16.10;99.90;;;;;;10568477;28;20671;-82
2021/08/17 07:13:44;;;;;;;8.77;7.80;;;16.10;99.90;;;;;;10567582;28;20564;-82
2021/08/17 07:18:48;;;;;;;8.60;7.73;;;16.20;99.90;;;;;;10567774;28;20334;-83
2021/08/17 07:23:50;;;;;;;9.63;8.40;;;16.30;99.90;;;;;;10587046;28;20187;-82
2021/08/17 07:28:52;;;;;;;15.50;7.27;;;16.40;99.90;;;;;;10588560;28;20257;-82
2021/08/17 07:33:56;;;;;;;8.37;7.67;;;16.50;99.90;;;;;;10568452;28;20199;-83
2021/08/17 07:38:58;;;;;;;8.13;7.17;;;16.70;99.90;;;;;;10570136;28;20226;-82
2021/08/17 07:44:01;;;;;;;8.10;7.27;;;16.90;99.90;;;;;;10569566;28;20409;-82
2021/08/17 07:49:04;;;;;;;9.30;7.67;;;17.20;99.90;;;;;;10569367;28;20217;-82
2021/08/17 07:54:06;;;;;;;8.03;7.07;;;17.60;99.90;;;;;;10568725;28;20567;-82
2021/08/17 07:59:08;;;;;;;7.60;6.87;;;18.10;99.90;;;;;;10569472;28;20215;-82
2021/08/17 08:04:12;;;;;;;7.60;6.97;;;18.30;99.90;;;;;;10569258;28;20188;-82
2021/08/17 08:09:14;;;;;;;7.60;6.50;;;18.50;99.90;;;;;;10553542;28;20250;-82
2021/08/17 08:14:16;;;;;;;6.80;6.07;;;18.60;99.90;;;;;;10570298;28;20528;-82
2021/08/17 08:19:20;;;;;;;9.17;6.30;;;18.80;99.90;;;;;;10574729;28;20233;-82
2021/08/17 08:24:22;;;;;;;6.53;5.87;;;18.80;99.90;;;;;;10570905;28;20638;-82
2021/08/17 08:29:24;;;;;;;7.83;7.07;;;18.80;99.90;;;;;;10594092;28;20628;-81
2021/08/17 08:34:27;;;;;;;7.03;6.23;;;18.80;99.90;;;;;;10591180;28;20191;-82
2021/08/17 08:39:30;;;;;;;7.30;6.60;;;19.00;99.90;;;;;;10572034;28;20219;-82
2021/08/17 08:44:32;;;;;;;8.10;7.40;;;19.30;99.90;;;;;;10575192;28;20215;-81
2021/08/17 08:49:38;;;;;;;9.30;6.57;;;19.50;99.90;;;;;;10545574;28;20789;-82
2021/08/17 08:54:40;;;;;;;7.97;7.17;;;19.70;99.90;;;;;;10564900;27;20274;-81
2021/08/17 08:59:42;;;;;;;9.33;7.50;;;19.80;99.90;;;;;;10602665;27;20229;-82
2021/08/17 09:04:52;;;;;;;8.23;7.50;;;19.90;99.90;;;;;;10604441;27;20193;-82
2021/08/17 09:10:01;;;;;;;7.53;6.93;;;19.90;99.90;;;;;;10604419;27;20187;-82
2021/08/17 09:15:13;;;;;;;7.40;6.20;;;19.80;99.90;;;;;;10605624;27;20685;-82
2021/08/17 09:20:32;;;;;;;6.70;5.57;;;19.80;99.90;;;;;;10624173;27;20228;-83
2021/08/17 09:25:34;;;;;;;7.23;6.43;;;19.90;99.90;;;;;;10591398;27;20215;-81
2021/08/17 09:30:37;;;;;;;7.93;7.13;;;20.00;99.90;;;;;;10601254;27;20210;-82
2021/08/17 09:35:40;;;;;;;7.23;6.60;;;20.30;99.30;;;;;;10603212;27;20225;-82
2021/08/17 09:40:43;;;;;;;6.73;6.13;;;20.60;99.10;;;;;;10566848;28;20211;-82
2021/08/17 09:45:45;;;;;;;5.83;5.33;;;20.80;94.90;;;;;;10571693;28;20225;-82
2021/08/17 09:50:49;;;;;;;7.10;6.40;;;20.80;93.70;;;;;;10589850;28;20255;-83
2021/08/17 09:55:53;;;;;;;5.47;4.70;;;21.00;95.60;;;;;;10587665;28;20215;-82
2021/08/17 10:00:58;;;;;;;6.13;5.63;;;21.20;94.70;;;;;;10593076;28;20259;-82
2021/08/17 10:06:01;;;;;;;6.33;5.73;;;21.20;97.70;;;;;;10575755;28;20218;-83
2021/08/17 10:11:04;;;;;;;5.80;5.27;;;21.30;94.90;;;;;;10574465;28;20206;-83
2021/08/17 10:16:06;;;;;;;6.07;5.50;;;21.30;96.30;;;;;;10572365;28;20302;-82
2021/08/17 10:21:10;;;;;;;5.63;5.13;;;21.30;98.70;;;;;;10590897;28;20254;-83
2021/08/17 10:26:28;;;;;;;6.27;5.70;;;21.30;97.40;;;;;;10546773;28;20567;-82
2021/08/17 10:31:32;;;;;;;6.63;6.03;;;21.00;96.70;;;;;;10590062;28;20194;-82
2021/08/17 10:36:37;;;;;;;6.07;5.57;;;20.90;99.20;;;;;;10568311;28;20211;-82
2021/08/17 10:41:40;;;;;;;6.20;5.70;;;20.90;94.40;;;;;;10585075;28;20261;-82
2021/08/17 10:47:06;;;;;;;5.63;5.17;;;21.00;95.40;;;;;;10621526;27;20222;-82
2021/08/17 10:52:12;;;;;;;7.53;5.10;;;21.10;96.00;;;;;;10590595;27;20190;-82
2021/08/17 10:57:16;;;;;;;7.50;6.33;;;21.10;96.60;;;;;;10585179;27;20298;-82
2021/08/17 11:02:23;;;;;;;7.30;5.57;;;20.80;94.80;;;;;;10624315;27;20218;-82
2021/08/17 11:07:30;;;;;;;5.87;5.27;;;20.70;97.10;;;;;;10578400;27;20206;-81
2021/08/17 11:12:37;;;;;;;6.10;5.50;;;20.70;95.40;;;;;;10597007;27;20278;-83
2021/08/17 11:17:40;;;;;;;5.77;5.27;;;20.80;96.70;;;;;;10576767;27;20301;-82
2021/08/17 11:22:43;;;;;;;6.40;5.73;;;20.90;97.30;;;;;;10610169;27;20268;-82
2021/08/17 11:27:46;;;;;;;5.10;4.70;;;20.90;97.20;;;;;;10575494;27;20261;-82
2021/08/17 11:32:56;;;;;;;5.57;4.80;;;20.80;96.20;;;;;;10610131;27;20195;-82
2021/08/17 11:38:00;;;;;;;5.00;4.60;;;20.60;97.20;;;;;;10615940;27;20218;-82
2021/08/17 11:43:02;;;;;;;5.70;5.10;;;20.30;94.60;;;;;;10634152;27;20557;-82
2021/08/17 11:48:05;;;;;;;4.70;4.30;;;20.00;95.70;;;;;;10601934;27;20240;-81
2021/08/17 11:53:17;;;;;;;5.00;4.60;;;19.90;92.90;;;;;;10580913;28;20202;-82
2021/08/17 11:58:22;;;;;;;4.83;4.30;;;19.70;93.40;;;;;;10571903;28;20234;-82
2021/08/17 12:03:25;;;;;;;4.80;4.20;;;19.70;96.60;;;;;;10573447;28;20308;-82
2021/08/17 12:08:29;;;;;;;4.37;4.07;;;19.70;96.00;;;;;;10594426;27;20210;-80
2021/08/17 12:13:38;;;;;;;5.23;4.20;;;19.80;95.20;;;;;;10583457;27;20639;-81
2021/08/17 12:18:40;;;;;;;4.40;4.07;;;19.80;95.70;;;;;;10565780;27;20221;-81
2021/08/17 12:23:46;;;;;;;4.97;4.57;;;19.90;92.50;;;;;;10583723;27;20577;-81
2021/08/17 12:28:51;;;;;;;4.53;4.20;;;20.00;95.40;;;;;;10538339;28;20216;-83
2021/08/17 12:33:54;;;;;;;7.40;5.13;;;19.90;93.50;;;;;;10556129;28;20283;-82
2021/08/17 12:39:07;;;;;;;5.77;5.27;;;19.90;90.40;;;;;;10523208;28;20584;-82
2021/08/17 12:44:20;;;;;;;7.63;6.67;;;19.80;90.90;;;;;;10573690;27;20195;-83
2021/08/17 12:49:22;;;;;;;5.80;5.30;;;19.80;97.40;;;;;;10524392;28;20219;-82
2021/08/17 12:54:25;;;;;;;7.30;6.17;;;19.80;98.70;;;;;;10563059;28;20207;-82
2021/08/17 12:59:28;;;;;;;5.67;5.17;;;19.80;95.10;;;;;;10566494;28;20636;-83
2021/08/17 13:04:30;;;;;;;6.53;5.93;;;20.00;92.90;;;;;;10545797;28;20210;-82
2021/08/17 13:09:33;;;;;;;6.13;5.60;;;20.20;91.70;;;;;;10545337;28;20307;-83
2021/08/17 13:14:36;;;;;;;5.60;5.17;;;20.50;94.10;;;;;;10547794;28;20278;-83
2021/08/17 13:19:38;;;;;;;6.30;5.70;;;20.80;91.00;;;;;;10564075;28;20237;-82
2021/08/17 13:24:41;;;;;;;6.30;5.80;;;21.10;91.20;;;;;;10530932;28;20235;-83
2021/08/17 13:29:44;;;;;;;6.57;5.80;;;21.40;92.00;;;;;;10534630;28;20255;-83
2021/08/17 13:34:46;;;;;;;5.10;4.70;;;21.60;91.00;;;;;;10564513;28;20206;-83
2021/08/17 13:39:50;;;;;;;6.30;5.70;;;21.80;95.00;;;;;;10545823;28;20241;-83
2021/08/17 13:44:53;;;;;;;6.20;5.70;;;21.90;92.40;;;;;;10564622;28;20712;-83
2021/08/17 13:49:55;;;;;;;6.00;5.50;;;22.00;91.40;;;;;;10545795;28;20192;-83
2021/08/17 13:54:58;;;;;;;5.53;5.13;;;22.10;89.90;;;;;;10531811;28;20263;-83
2021/08/17 14:00:00;;;;;;;5.20;4.77;;;22.10;90.70;;;;;;10563565;28;20235;-81
2021/08/17 14:05:02;;;;;;;5.90;5.40;;;22.10;90.40;;;;;;10561230;28;20570;-82
2021/08/17 14:10:07;;;;;;;6.87;6.17;;;22.10;89.50;;;;;;10523053;28;20270;-82
2021/08/17 14:15:10;;;;;;;6.07;5.57;;;22.00;90.40;;;;;;10539968;28;20562;-82
2021/08/17 14:20:13;;;;;;;6.33;5.83;;;22.00;92.90;;;;;;10525223;27;20579;-83
2021/08/17 14:25:16;;;;;;;6.30;5.70;;;22.00;91.10;;;;;;10548587;28;20230;-81
2021/08/17 14:30:18;;;;;;;7.60;5.90;;;22.00;88.10;;;;;;10573831;27;20193;-82
2021/08/17 14:35:20;;;;;;;6.33;5.77;;;21.90;88.50;;;;;;10572571;28;20219;-83
2021/08/17 14:40:24;;;;;;;7.67;6.57;;;21.90;90.00;;;;;;10591155;28;20203;-83
2021/08/17 14:45:26;;;;;;;6.70;5.53;;;21.90;90.80;;;;;;10591806;27;20215;-83
2021/08/17 14:50:28;;;;;;;7.43;6.67;;;21.90;91.90;;;;;;10574607;28;20187;-83
2021/08/17 14:55:33;;;;;;;6.47;6.03;;;21.90;92.90;;;;;;10573196;28;20219;-83
2021/08/17 15:13:21;;;;;;;7.80;6.93;;;21.70;93.50;;;;;;10415638;28;20803;-84
2021/08/17 15:18:24;;;;;;;7.33;6.60;;;21.70;90.60;;;;;;10579606;28;20223;-85
2021/08/17 15:23:37;;;;;;;7.73;7.03;;;21.70;92.00;;;;;;10590696;28;20271;-84
2021/08/17 15:28:41;;;;;;;6.90;6.30;;;21.60;92.70;;;;;;10572463;28;20392;-85
2021/08/17 15:33:43;;;;;;;7.13;6.53;;;21.50;92.60;;;;;;10571324;28;20686;-85
2021/08/17 15:38:46;;;;;;;9.40;7.03;;;21.40;92.80;;;;;;10573623;28;20282;-85
2021/08/17 15:43:50;;;;;;;7.47;6.67;;;21.30;93.50;;;;;;10573071;28;20223;-85
2021/08/17 15:48:52;;;;;;;7.70;6.90;;;21.30;94.80;;;;;;10579659;28;20215;-83
2021/08/17 15:53:54;;;;;;;8.57;7.77;;;21.10;96.40;;;;;;10581355;28;20195;-84
2021/08/17 15:59:06;;;;;;;8.17;7.40;;;21.00;95.50;;;;;;10586317;28;20213;-84
2021/08/17 16:04:09;;;;;;;9.50;7.40;;;20.90;93.70;;;;;;10566021;28;20294;-84
2021/08/17 16:09:11;;;;;;;7.60;6.90;;;20.80;94.40;;;;;;10568066;28;20687;-84
2021/08/17 16:14:15;;;;;;;7.87;7.17;;;20.80;95.70;;;;;;10531191;28;20208;-83
2021/08/17 16:19:17;;;;;;;9.20;7.53;;;20.70;95.30;;;;;;10508444;28;20278;-84
2021/08/17 16:24:19;;;;;;;8.23;7.53;;;20.60;96.10;;;;;;10510551;28;20199;-85
2021/08/17 16:29:23;;;;;;;8.03;7.33;;;20.60;96.90;;;;;;10525908;28;20242;-84
2021/08/17 16:34:25;;;;;;;8.73;7.90;;;20.50;97.00;;;;;;10510190;28;20188;-85
2021/08/17 16:39:27;;;;;;;8.27;7.43;;;20.40;98.60;;;;;;10546347;28;20215;-83
2021/08/17 16:44:31;;;;;;;9.00;8.10;;;20.40;98.50;;;;;;10511879;28;20191;-84
2021/08/17 16:49:35;;;;;;;9.57;8.67;;;20.40;99.20;;;;;;10513320;28;20224;-84
2021/08/17 16:54:37;;;;;;;9.63;8.73;;;20.40;97.90;;;;;;10512099;28;20192;-84
2021/08/17 16:59:41;;;;;;;11.67;8.50;;;20.40;96.90;;;;;;10524578;28;20216;-83
2021/08/17 17:04:43;;;;;;;8.60;7.70;;;20.30;97.40;;;;;;10559671;28;20670;-83
2021/08/17 17:09:45;;;;;;;8.17;7.40;;;20.30;94.60;;;;;;10597570;27;20302;-84
2021/08/17 17:14:49;;;;;;;8.60;7.80;;;20.30;99.30;;;;;;10576989;27;20583;-83
2021/08/17 17:19:51;;;;;;;9.17;8.27;;;20.20;97.10;;;;;;10606446;27;20222;-84
2021/08/17 17:24:53;;;;;;;9.83;8.80;;;20.20;98.80;;;;;;10592569;27;20194;-83
2021/08/17 17:29:57;;;;;;;9.30;8.50;;;20.10;97.50;;;;;;10611353;27;20254;-84
2021/08/17 17:34:59;;;;;;;10.00;9.00;;;20.00;98.40;;;;;;10632036;27;20190;-84
2021/08/17 17:40:04;;;;;;;8.97;8.17;;;20.00;99.10;;;;;;10613428;27;20229;-82
2021/08/17 17:45:08;;;;;;;10.00;9.00;;;19.90;99.00;;;;;;10626681;27;20252;-84
2021/08/17 17:50:11;;;;;;;10.30;9.23;;;19.90;97.70;;;;;;10541665;22;20334;-82
2021/08/17 17:55:14;;;;;;;13.10;9.77;;;19.80;98.20;;;;;;10507364;28;20291;-83
2021/08/17 18:00:17;;;;;;;11.20;9.87;;;19.80;97.40;;;;;;10482214;28;20312;-81
2021/08/17 18:05:20;;;;;;;9.30;8.40;;;19.80;99.90;;;;;;10475104;28;20631;-82
2021/08/17 18:10:22;;;;;;;14.70;10.30;;;19.70;98.60;;;;;;10478880;28;20201;-82
2021/08/17 18:15:25;;;;;;;10.70;9.50;;;19.70;99.90;;;;;;10446617;28;20196;-81
2021/08/17 18:20:28;;;;;;;10.87;9.80;;;19.70;99.90;;;;;;10481199;28;20221;-82
2021/08/17 18:25:30;;;;;;;10.73;9.50;;;19.70;99.90;;;;;;10463994;28;20197;-82
2021/08/17 18:30:34;;;;;;;11.53;9.80;;;19.70;99.90;;;;;;10454796;28;20189;-83
2021/08/17 18:35:36;;;;;;;10.50;9.50;;;19.60;99.90;;;;;;10456711;28;20706;-81
2021/08/17 18:40:39;;;;;;;12.03;9.83;;;19.60;99.90;;;;;;10500675;28;20739;-82
2021/08/17 18:45:42;;;;;;;10.27;9.20;;;19.60;99.90;;;;;;10515099;28;20197;-82
2021/08/17 18:50:47;;;;;;;13.40;10.60;;;19.50;99.90;;;;;;10494781;28;20189;-82
2021/08/17 18:55:49;;;;;;;12.83;11.10;;;19.50;99.90;;;;;;10476327;28;20213;-82
2021/08/17 19:00:53;;;;;;;17.70;13.07;;;19.40;99.90;;;;;;10476084;28;20205;-82
2021/08/17 19:05:55;;;;;;;14.10;11.50;;;19.20;99.90;;;;;;10477599;28;20255;-82
2021/08/17 19:10:57;;;;;;;12.57;11.30;;;18.90;99.90;;;;;;10460830;28;20673;-82
2021/08/17 19:16:01;;;;;;;11.40;10.20;;;18.60;99.90;;;;;;10477934;28;20213;-82
2021/08/17 19:21:03;;;;;;;11.57;10.20;;;18.30;99.90;;;;;;10478330;28;20701;-83
2021/08/17 19:26:05;;;;;;;14.77;12.60;;;18.00;99.90;;;;;;10456242;28;20713;-83
2021/08/17 19:31:11;;;;;;;14.40;12.27;;;17.70;99.90;;;;;;10407430;28;20221;-83
2021/08/17 19:36:13;;;;;;;17.53;13.10;;;17.50;99.90;;;;;;10426768;28;20236;-83
2021/08/17 19:41:15;;;;;;;15.60;12.70;;;17.40;99.90;;;;;;10426077;28;20586;-83
2021/08/17 19:46:18;;;;;;;17.47;13.80;;;17.30;99.90;;;;;;10421694;28;20723;-83
2021/08/17 19:51:21;;;;;;;12.93;11.60;;;17.30;99.90;;;;;;10404091;28;20198;-83
2021/08/17 19:56:25;;;;;;;14.53;13.03;;;17.30;99.90;;;;;;10418051;28;20364;-83
2021/08/17 20:01:29;;;;;;;18.83;12.47;;;17.30;99.90;;;;;;10414277;28;20247;-84
2021/08/17 20:06:31;;;;;;;13.17;11.63;;;17.20;99.90;;;;;;10414982;28;20210;-84
2021/08/17 20:11:34;;;;;;;13.27;11.70;;;17.20;99.90;;;;;;10413409;28;20245;-83
2021/08/17 20:16:37;;;;;;;13.50;11.97;;;17.10;99.90;;;;;;10412357;28;20291;-83
2021/08/17 20:21:41;;;;;;;17.40;13.07;;;17.00;99.90;;;;;;10414268;28;20218;-83
2021/08/17 20:26:47;;;;;;;14.60;12.83;;;17.00;99.90;;;;;;10428512;28;20270;-83
2021/08/17 20:31:50;;;;;;;14.40;11.33;;;17.00;99.90;;;;;;10439603;28;20244;-83
2021/08/17 20:36:53;;;;;;;15.50;12.23;;;17.00;99.90;;;;;;10456082;28;20217;-83
2021/08/17 20:41:57;;;;;;;16.53;13.03;;;17.00;99.90;;;;;;10458089;28;20731;-84
2021/08/17 20:47:01;;;;;;;16.17;13.03;;;17.00;99.90;;;;;;10460653;28;20294;-83
2021/08/17 20:52:03;;;;;;;15.33;12.70;;;17.00;99.90;;;;;;10459515;28;20224;-83
2021/08/17 20:57:06;;;;;;;18.03;15.27;;;16.90;99.90;;;;;;10440745;28;20221;-84
2021/08/17 21:02:10;;;;;;;17.63;15.80;;;16.90;99.90;;;;;;10458784;28;20440;-85
2021/08/17 21:07:14;;;;;;;17.20;15.40;;;16.70;99.90;;;;;;10440955;28;20225;-84
2021/08/17 21:12:16;;;;;;;21.03;16.93;;;16.60;99.90;;;;;;10440463;28;20189;-84
2021/08/17 21:17:19;;;;;;;19.43;16.63;;;16.40;99.90;;;;;;10456515;28;20244;-85
2021/08/17 21:22:21;;;;;;;22.47;16.90;;;16.30;99.90;;;;;;10456239;28;20243;-85
2021/08/17 21:27:24;;;;;;;19.80;16.73;;;16.20;99.90;;;;;;10455954;28;20294;-85
2021/08/17 21:32:28;;;;;;;22.90;18.50;;;16.20;99.90;;;;;;10439395;28;20280;-85
2021/08/17 21:37:31;;;;;;;20.90;16.97;;;16.20;99.90;;;;;;10437908;28;20210;-85
2021/08/17 21:42:34;;;;;;;20.23;16.77;;;16.20;99.90;;;;;;10396536;28;20275;-85
2021/08/17 21:47:38;;;;;;;28.90;24.23;;;16.20;99.90;;;;;;10414889;28;20257;-85
2021/08/17 21:52:40;;;;;;;25.60;17.80;;;16.30;99.90;;;;;;10412151;28;20630;-85
2021/08/17 21:57:42;;;;;;;21.43;17.70;;;16.30;99.90;;;;;;10396331;28;20681;-85
2021/08/17 22:02:46;;;;;;;23.77;17.27;;;16.30;99.90;;;;;;10413888;28;20217;-85
2021/08/17 22:07:48;;;;;;;20.10;16.00;;;16.20;99.90;;;;;;10414405;28;20217;-84
2021/08/17 22:12:53;;;;;;;22.73;16.03;;;16.20;99.90;;;;;;10398065;28;20202;-85
2021/08/17 22:17:56;;;;;;;20.83;16.00;;;16.30;99.90;;;;;;10414132;28;20301;-84
2021/08/17 22:22:59;;;;;;;18.40;14.87;;;16.30;99.90;;;;;;10415600;28;20326;-85
2021/08/17 22:28:01;;;;;;;19.00;15.17;;;16.30;99.90;;;;;;10417547;28;20635;-84
2021/08/17 22:33:06;;;;;;;19.40;14.80;;;16.20;99.90;;;;;;10416433;28;20648;-84
2021/08/17 22:38:08;;;;;;;18.67;14.50;;;16.20;99.90;;;;;;10416130;28;20260;-85
2021/08/17 22:43:10;;;;;;;19.70;15.07;;;16.30;99.90;;;;;;10425461;28;20252;-85
2021/08/17 22:48:13;;;;;;;19.43;14.10;;;16.30;99.90;;;;;;10401995;28;20264;-85
2021/08/17 22:53:16;;;;;;;17.70;13.77;;;16.40;99.90;;;;;;10402053;28;20256;-85
2021/08/17 22:58:18;;;;;;;17.27;13.37;;;16.40;99.90;;;;;;10418908;28;20309;-85
2021/08/17 23:03:21;;;;;;;16.43;13.10;;;16.40;99.90;;;;;;10402052;28;20225;-84
2021/08/17 23:08:23;;;;;;;17.30;13.33;;;16.50;99.90;;;;;;10419762;28;20221;-85
2021/08/17 23:13:25;;;;;;;16.10;12.37;;;16.60;99.90;;;;;;10419194;28;20305;-85
2021/08/17 23:18:30;;;;;;;15.47;12.73;;;16.60;99.90;;;;;;10420485;28;20241;-84
2021/08/17 23:23:32;;;;;;;16.27;12.20;;;16.70;99.90;;;;;;10419995;28;20646;-84
2021/08/17 23:28:34;;;;;;;15.77;12.20;;;16.80;99.90;;;;;;10419234;28;20216;-85
2021/08/17 23:33:37;;;;;;;16.00;12.50;;;16.80;99.90;;;;;;10419049;28;20645;-85
2021/08/17 23:38:40;;;;;;;17.30;13.00;;;16.90;99.90;;;;;;10420223;28;20224;-85
2021/08/17 23:43:42;;;;;;;16.87;12.93;;;17.00;99.90;;;;;;10404768;28;20313;-85
2021/08/17 23:53:55;;;;;;;14.43;12.43;;;17.20;99.90;;;;;;10539236;28;20212;-83
2021/08/17 23:58:57;;;;;;;16.10;12.80;;;17.20;99.90;;;;;;10477591;28;20228;-83
